sensor_id;sensor_type;location;lat;lon;timestamp;temperature;humidity
17956;DHT22;27666;51.498;11.966;2022-12-08T00:00:53;4.60;99.90
17956;DHT22;27666;51.498;11.966;2022-12-08T00:03:39;4.60;99.90
17956;DHT22;27666;51.498;11.966;2022-12-08T00:06:27;4.60;99.90
17956;DHT22;27666;51.498;11.966;2022-12-08T00:09:35;4.70;99.90
17956;DHT22;27666;51.498;11.966;2022-12-08T00:12:24;4.60;99.90
17956;DHT22;27666;51.498;11.966;2022-12-08T00:15:10;4.50;99.90
17956;DHT22;27666;51.498;11.966;2022-12-08T00:17:56;4.60;99.90
17956;DHT22;27666;51.498;11.966;2022-12-08T00:20:43;4.70;99.90
17956;DHT22;27666;51.498;11.966;2022-12-08T00:23:29;4.60;99.90
17956;DHT22;27666;51.498;11.966;2022-12-08T00:26:17;4.60;99.90
17956;DHT22;27666;51.498;11.966;2022-12-08T00:29:04;4.60;99.90
17956;DHT22;27666;51.498;11.966;2022-12-08T00:31:51;4.60;99.90
17956;DHT22;27666;51.498;11.966;2022-12-08T00:34:37;4.60;99.90
17956;DHT22;27666;51.498;11.966;2022-12-08T00:37:24;4.60;99.90
17956;DHT22;27666;51.498;11.966;2022-12-08T00:40:10;4.50;99.90
17956;DHT22;27666;51.498;11.966;2022-12-08T00:42:58;4.60;99.90
17956;DHT22;27666;51.498;11.966;2022-12-08T00:45:47;4.60;99.90
17956;DHT22;27666;51.498;11.966;2022-12-08T00:48:34;4.60;99.90
17956;DHT22;27666;51.498;11.966;2022-12-08T00:51:21;4.50;99.90
17956;DHT22;27666;51.498;11.966;2022-12-08T00:54:08;4.50;99.90
17956;DHT22;27666;51.498;11.966;2022-12-08T00:56:55;4.60;99.90
17956;DHT22;27666;51.498;11.966;2022-12-08T00:59:42;4.60;99.90
17956;DHT22;27666;51.498;11.966;2022-12-08T01:02:29;4.60;99.90
17956;DHT22;27666;51.498;11.966;2022-12-08T01:05:17;4.60;99.90
17956;DHT22;27666;51.498;11.966;2022-12-08T01:08:04;4.60;99.90
17956;DHT22;27666;51.498;11.966;2022-12-08T01:10:51;4.60;99.90
17956;DHT22;27666;51.498;11.966;2022-12-08T01:13:38;4.50;99.90
17956;DHT22;27666;51.498;11.966;2022-12-08T01:16:29;4.50;99.90
17956;DHT22;27666;51.498;11.966;2022-12-08T01:19:16;4.50;99.90
17956;DHT22;27666;51.498;11.966;2022-12-08T01:22:03;4.60;99.90
17956;DHT22;27666;51.498;11.966;2022-12-08T01:24:49;4.50;99.90
17956;DHT22;27666;51.498;11.966;2022-12-08T01:27:35;4.50;99.90
17956;DHT22;27666;51.498;11.966;2022-12-08T01:30:22;4.50;99.90
17956;DHT22;27666;51.498;11.966;2022-12-08T01:33:10;4.60;99.90
17956;DHT22;27666;51.498;11.966;2022-12-08T01:36:01;4.60;99.90
17956;DHT22;27666;51.498;11.966;2022-12-08T01:38:49;4.60;99.90
17956;DHT22;27666;51.498;11.966;2022-12-08T01:41:38;4.50;99.90
17956;DHT22;27666;51.498;11.966;2022-12-08T01:44:57;4.50;99.90
17956;DHT22;27666;51.498;11.966;2022-12-08T01:47:46;4.50;99.90
17956;DHT22;27666;51.498;11.966;2022-12-08T01:50:37;4.40;99.90
17956;DHT22;27666;51.498;11.966;2022-12-08T01:53:27;4.40;99.90
17956;DHT22;27666;51.498;11.966;2022-12-08T01:56:21;4.40;99.90
17956;DHT22;27666;51.498;11.966;2022-12-08T01:59:10;4.50;99.90
17956;DHT22;27666;51.498;11.966;2022-12-08T02:01:57;4.40;99.90
17956;DHT22;27666;51.498;11.966;2022-12-08T02:04:44;4.30;99.90
17956;DHT22;27666;51.498;11.966;2022-12-08T02:07:32;4.30;99.90
17956;DHT22;27666;51.498;11.966;2022-12-08T02:10:20;4.30;99.90
17956;DHT22;27666;51.498;11.966;2022-12-08T02:13:09;4.30;99.90
17956;DHT22;27666;51.498;11.966;2022-12-08T02:16:01;4.40;99.90
17956;DHT22;27666;51.498;11.966;2022-12-08T02:19:00;4.40;99.90
17956;DHT22;27666;51.498;11.966;2022-12-08T02:22:11;4.40;99.90
17956;DHT22;27666;51.498;11.966;2022-12-08T02:25:11;4.40;99.90
17956;DHT22;27666;51.498;11.966;2022-12-08T02:28:11;4.30;99.90
17956;DHT22;27666;51.498;11.966;2022-12-08T02:31:09;4.40;99.90
17956;DHT22;27666;51.498;11.966;2022-12-08T02:34:17;4.30;99.90
17956;DHT22;27666;51.498;11.966;2022-12-08T02:37:09;4.30;99.90
17956;DHT22;27666;51.498;11.966;2022-12-08T02:40:01;4.30;99.90
17956;DHT22;27666;51.498;11.966;2022-12-08T02:42:55;4.30;99.90
17956;DHT22;27666;51.498;11.966;2022-12-08T02:45:45;4.20;99.90
17956;DHT22;27666;51.498;11.966;2022-12-08T02:48:34;4.20;99.90
17956;DHT22;27666;51.498;11.966;2022-12-08T02:51:21;4.10;99.90
17956;DHT22;27666;51.498;11.966;2022-12-08T02:54:08;4.30;99.90
17956;DHT22;27666;51.498;11.966;2022-12-08T02:57:09;4.30;99.90
17956;DHT22;27666;51.498;11.966;2022-12-08T03:00:05;4.20;99.90
17956;DHT22;27666;51.498;11.966;2022-12-08T03:03:00;4.20;99.90
17956;DHT22;27666;51.498;11.966;2022-12-08T03:05:58;4.20;99.90
17956;DHT22;27666;51.498;11.966;2022-12-08T03:08:54;4.20;99.90
17956;DHT22;27666;51.498;11.966;2022-12-08T03:11:47;4.10;99.90
17956;DHT22;27666;51.498;11.966;2022-12-08T03:14:35;4.10;99.90
17956;DHT22;27666;51.498;11.966;2022-12-08T03:17:25;4.20;99.90
17956;DHT22;27666;51.498;11.966;2022-12-08T03:20:18;4.30;99.90
17956;DHT22;27666;51.498;11.966;2022-12-08T03:23:09;4.30;99.90
17956;DHT22;27666;51.498;11.966;2022-12-08T03:26:03;4.20;99.90
17956;DHT22;27666;51.498;11.966;2022-12-08T03:28:53;4.20;99.90
17956;DHT22;27666;51.498;11.966;2022-12-08T03:31:43;4.30;99.90
17956;DHT22;27666;51.498;11.966;2022-12-08T03:34:30;4.30;99.90
17956;DHT22;27666;51.498;11.966;2022-12-08T03:37:17;4.30;99.90
17956;DHT22;27666;51.498;11.966;2022-12-08T03:40:05;4.20;99.90
17956;DHT22;27666;51.498;11.966;2022-12-08T03:42:54;4.20;99.90
17956;DHT22;27666;51.498;11.966;2022-12-08T03:45:40;4.10;99.90
17956;DHT22;27666;51.498;11.966;2022-12-08T03:48:27;4.10;99.90
17956;DHT22;27666;51.498;11.966;2022-12-08T03:51:14;4.10;99.90
17956;DHT22;27666;51.498;11.966;2022-12-08T03:54:00;4.10;99.90
17956;DHT22;27666;51.498;11.966;2022-12-08T03:56:46;4.10;99.90
17956;DHT22;27666;51.498;11.966;2022-12-08T03:59:34;4.10;99.90
17956;DHT22;27666;51.498;11.966;2022-12-08T04:02:21;4.10;99.90
17956;DHT22;27666;51.498;11.966;2022-12-08T04:05:08;4.20;99.90
17956;DHT22;27666;51.498;11.966;2022-12-08T04:07:56;4.20;99.90
17956;DHT22;27666;51.498;11.966;2022-12-08T04:10:43;4.20;99.90
17956;DHT22;27666;51.498;11.966;2022-12-08T04:13:29;4.20;99.90
17956;DHT22;27666;51.498;11.966;2022-12-08T04:16:18;4.20;99.90
17956;DHT22;27666;51.498;11.966;2022-12-08T04:19:05;4.20;99.90
17956;DHT22;27666;51.498;11.966;2022-12-08T04:21:52;4.20;99.90
17956;DHT22;27666;51.498;11.966;2022-12-08T04:24:38;4.10;99.90
17956;DHT22;27666;51.498;11.966;2022-12-08T04:27:25;4.10;99.90
17956;DHT22;27666;51.498;11.966;2022-12-08T04:30:11;4.20;99.90
17956;DHT22;27666;51.498;11.966;2022-12-08T04:32:59;4.20;99.90
17956;DHT22;27666;51.498;11.966;2022-12-08T04:35:45;4.20;99.90
17956;DHT22;27666;51.498;11.966;2022-12-08T04:38:32;4.20;99.90
17956;DHT22;27666;51.498;11.966;2022-12-08T04:41:19;4.10;99.90
17956;DHT22;27666;51.498;11.966;2022-12-08T04:44:05;4.10;99.90
17956;DHT22;27666;51.498;11.966;2022-12-08T04:46:51;4.10;99.90
17956;DHT22;27666;51.498;11.966;2022-12-08T04:49:39;4.10;99.90
17956;DHT22;27666;51.498;11.966;2022-12-08T04:52:25;4.10;99.90
17956;DHT22;27666;51.498;11.966;2022-12-08T04:55:12;4.10;99.90
17956;DHT22;27666;51.498;11.966;2022-12-08T04:57:58;4.20;99.90
17956;DHT22;27666;51.498;11.966;2022-12-08T05:00:45;4.10;99.90
17956;DHT22;27666;51.498;11.966;2022-12-08T05:03:32;4.10;99.90
17956;DHT22;27666;51.498;11.966;2022-12-08T05:06:20;4.00;99.90
17956;DHT22;27666;51.498;11.966;2022-12-08T05:09:06;3.90;99.90
17956;DHT22;27666;51.498;11.966;2022-12-08T05:11:52;4.00;99.90
17956;DHT22;27666;51.498;11.966;2022-12-08T05:14:39;3.90;99.90
17956;DHT22;27666;51.498;11.966;2022-12-08T05:17:25;3.80;99.90
17956;DHT22;27666;51.498;11.966;2022-12-08T05:20:12;3.80;99.90
17956;DHT22;27666;51.498;11.966;2022-12-08T05:23:00;3.70;99.90
17956;DHT22;27666;51.498;11.966;2022-12-08T05:25:46;3.70;99.90
17956;DHT22;27666;51.498;11.966;2022-12-08T05:28:33;3.70;99.90
17956;DHT22;27666;51.498;11.966;2022-12-08T05:31:28;3.70;99.90
17956;DHT22;27666;51.498;11.966;2022-12-08T05:34:14;3.60;99.90
17956;DHT22;27666;51.498;11.966;2022-12-08T05:37:00;3.60;99.90
17956;DHT22;27666;51.498;11.966;2022-12-08T05:39:48;3.60;99.90
17956;DHT22;27666;51.498;11.966;2022-12-08T05:42:34;3.60;99.90
17956;DHT22;27666;51.498;11.966;2022-12-08T05:45:21;3.50;99.90
17956;DHT22;27666;51.498;11.966;2022-12-08T05:48:07;3.60;99.90
17956;DHT22;27666;51.498;11.966;2022-12-08T05:50:54;3.50;99.90
17956;DHT22;27666;51.498;11.966;2022-12-08T05:53:41;3.50;99.90
17956;DHT22;27666;51.498;11.966;2022-12-08T05:56:28;3.60;99.90
17956;DHT22;27666;51.498;11.966;2022-12-08T05:59:15;3.60;99.90
17956;DHT22;27666;51.498;11.966;2022-12-08T06:02:01;3.70;99.90
17956;DHT22;27666;51.498;11.966;2022-12-08T06:04:48;3.60;99.90
17956;DHT22;27666;51.498;11.966;2022-12-08T06:07:35;3.60;99.90
17956;DHT22;27666;51.498;11.966;2022-12-08T06:10:21;3.60;99.90
17956;DHT22;27666;51.498;11.966;2022-12-08T06:13:09;3.60;99.90
17956;DHT22;27666;51.498;11.966;2022-12-08T06:16:02;3.50;99.90
17956;DHT22;27666;51.498;11.966;2022-12-08T06:18:49;3.50;99.90
17956;DHT22;27666;51.498;11.966;2022-12-08T06:21:36;3.50;99.90
17956;DHT22;27666;51.498;11.966;2022-12-08T06:24:22;3.40;99.90
17956;DHT22;27666;51.498;11.966;2022-12-08T06:27:08;3.50;99.90
17956;DHT22;27666;51.498;11.966;2022-12-08T06:29:56;3.50;99.90
17956;DHT22;27666;51.498;11.966;2022-12-08T06:32:42;3.50;99.90
17956;DHT22;27666;51.498;11.966;2022-12-08T06:35:29;3.60;99.90
17956;DHT22;27666;51.498;11.966;2022-12-08T06:38:15;3.60;99.90
17956;DHT22;27666;51.498;11.966;2022-12-08T06:41:01;3.60;99.90
17956;DHT22;27666;51.498;11.966;2022-12-08T06:43:50;3.60;99.90
17956;DHT22;27666;51.498;11.966;2022-12-08T06:46:37;3.60;99.90
17956;DHT22;27666;51.498;11.966;2022-12-08T06:49:24;3.60;99.90
17956;DHT22;27666;51.498;11.966;2022-12-08T06:52:10;3.60;99.90
17956;DHT22;27666;51.498;11.966;2022-12-08T06:54:56;3.60;99.90
17956;DHT22;27666;51.498;11.966;2022-12-08T06:57:43;3.70;99.90
17956;DHT22;27666;51.498;11.966;2022-12-08T07:00:29;3.90;99.90
17956;DHT22;27666;51.498;11.966;2022-12-08T07:03:17;3.80;99.90
17956;DHT22;27666;51.498;11.966;2022-12-08T07:06:03;3.80;99.90
17956;DHT22;27666;51.498;11.966;2022-12-08T07:08:50;3.90;99.90
17956;DHT22;27666;51.498;11.966;2022-12-08T07:11:37;3.80;99.90
17956;DHT22;27666;51.498;11.966;2022-12-08T07:14:24;3.90;99.90
17956;DHT22;27666;51.498;11.966;2022-12-08T07:17:10;3.80;99.90
17956;DHT22;27666;51.498;11.966;2022-12-08T07:19:59;3.90;99.90
17956;DHT22;27666;51.498;11.966;2022-12-08T07:22:47;3.80;99.90
17956;DHT22;27666;51.498;11.966;2022-12-08T07:25:35;3.70;99.90
17956;DHT22;27666;51.498;11.966;2022-12-08T07:28:21;3.70;99.90
17956;DHT22;27666;51.498;11.966;2022-12-08T07:31:15;3.80;99.90
17956;DHT22;27666;51.498;11.966;2022-12-08T07:34:02;3.80;99.90
17956;DHT22;27666;51.498;11.966;2022-12-08T07:36:50;3.80;99.90
17956;DHT22;27666;51.498;11.966;2022-12-08T07:39:37;3.90;99.90
17956;DHT22;27666;51.498;11.966;2022-12-08T07:42:23;4.00;99.90
17956;DHT22;27666;51.498;11.966;2022-12-08T07:45:09;4.00;99.90
17956;DHT22;27666;51.498;11.966;2022-12-08T07:47:56;4.00;99.90
17956;DHT22;27666;51.498;11.966;2022-12-08T07:50:44;4.10;99.90
17956;DHT22;27666;51.498;11.966;2022-12-08T07:53:32;4.10;99.90
17956;DHT22;27666;51.498;11.966;2022-12-08T07:56:18;4.30;99.90
17956;DHT22;27666;51.498;11.966;2022-12-08T07:59:05;4.40;99.90
17956;DHT22;27666;51.498;11.966;2022-12-08T08:01:52;4.40;99.90
17956;DHT22;27666;51.498;11.966;2022-12-08T08:04:58;4.60;99.90
17956;DHT22;27666;51.498;11.966;2022-12-08T08:07:45;4.70;99.90
17956;DHT22;27666;51.498;11.966;2022-12-08T08:10:33;4.80;99.90
17956;DHT22;27666;51.498;11.966;2022-12-08T08:13:20;4.80;99.90
17956;DHT22;27666;51.498;11.966;2022-12-08T08:16:08;4.90;99.90
17956;DHT22;27666;51.498;11.966;2022-12-08T08:18:55;5.00;99.90
17956;DHT22;27666;51.498;11.966;2022-12-08T08:21:41;5.00;99.90
17956;DHT22;27666;51.498;11.966;2022-12-08T08:24:30;5.00;99.90
17956;DHT22;27666;51.498;11.966;2022-12-08T08:27:18;5.00;99.90
17956;DHT22;27666;51.498;11.966;2022-12-08T08:30:05;5.00;99.90
17956;DHT22;27666;51.498;11.966;2022-12-08T08:32:52;4.90;99.90
17956;DHT22;27666;51.498;11.966;2022-12-08T08:35:38;4.90;99.90
17956;DHT22;27666;51.498;11.966;2022-12-08T08:38:26;4.80;99.90
17956;DHT22;27666;51.498;11.966;2022-12-08T08:41:13;4.70;99.90
17956;DHT22;27666;51.498;11.966;2022-12-08T08:44:01;4.90;99.90
17956;DHT22;27666;51.498;11.966;2022-12-08T08:46:47;5.00;99.90
17956;DHT22;27666;51.498;11.966;2022-12-08T08:49:33;5.00;99.90
17956;DHT22;27666;51.498;11.966;2022-12-08T08:52:20;5.00;99.90
17956;DHT22;27666;51.498;11.966;2022-12-08T08:55:06;5.10;99.90
17956;DHT22;27666;51.498;11.966;2022-12-08T08:57:53;5.00;99.90
17956;DHT22;27666;51.498;11.966;2022-12-08T09:00:41;5.10;99.90
17956;DHT22;27666;51.498;11.966;2022-12-08T09:03:27;5.20;99.90
17956;DHT22;27666;51.498;11.966;2022-12-08T09:06:15;5.20;99.90
17956;DHT22;27666;51.498;11.966;2022-12-08T09:09:01;5.20;99.90
17956;DHT22;27666;51.498;11.966;2022-12-08T09:11:48;5.30;99.90
17956;DHT22;27666;51.498;11.966;2022-12-08T09:14:34;5.30;99.90
17956;DHT22;27666;51.498;11.966;2022-12-08T09:17:22;5.20;99.90
17956;DHT22;27666;51.498;11.966;2022-12-08T09:20:09;5.20;99.90
17956;DHT22;27666;51.498;11.966;2022-12-08T09:22:55;5.20;99.90
17956;DHT22;27666;51.498;11.966;2022-12-08T09:25:42;5.30;99.90
17956;DHT22;27666;51.498;11.966;2022-12-08T09:28:29;5.30;99.90
17956;DHT22;27666;51.498;11.966;2022-12-08T09:31:16;5.30;99.90
17956;DHT22;27666;51.498;11.966;2022-12-08T09:34:05;5.40;99.90
17956;DHT22;27666;51.498;11.966;2022-12-08T09:36:51;5.40;99.90
17956;DHT22;27666;51.498;11.966;2022-12-08T09:39:38;5.40;99.90
17956;DHT22;27666;51.498;11.966;2022-12-08T09:42:32;5.50;99.90
17956;DHT22;27666;51.498;11.966;2022-12-08T09:45:22;5.50;99.90
17956;DHT22;27666;51.498;11.966;2022-12-08T09:48:14;5.40;99.90
17956;DHT22;27666;51.498;11.966;2022-12-08T09:51:04;5.40;99.90
17956;DHT22;27666;51.498;11.966;2022-12-08T09:53:55;5.50;99.90
17956;DHT22;27666;51.498;11.966;2022-12-08T09:56:42;5.50;99.90
17956;DHT22;27666;51.498;11.966;2022-12-08T09:59:30;5.60;99.90
17956;DHT22;27666;51.498;11.966;2022-12-08T10:02:21;5.60;99.90
17956;DHT22;27666;51.498;11.966;2022-12-08T10:05:12;5.70;99.90
17956;DHT22;27666;51.498;11.966;2022-12-08T10:08:06;5.60;99.90
17956;DHT22;27666;51.498;11.966;2022-12-08T10:10:55;5.70;99.90
17956;DHT22;27666;51.498;11.966;2022-12-08T10:13:52;5.80;99.90
17956;DHT22;27666;51.498;11.966;2022-12-08T10:16:43;5.80;99.90
17956;DHT22;27666;51.498;11.966;2022-12-08T10:19:30;5.90;99.90
17956;DHT22;27666;51.498;11.966;2022-12-08T10:22:22;6.00;99.90
17956;DHT22;27666;51.498;11.966;2022-12-08T10:25:15;6.10;99.90
17956;DHT22;27666;51.498;11.966;2022-12-08T10:28:02;6.20;99.90
17956;DHT22;27666;51.498;11.966;2022-12-08T10:30:49;6.40;99.90
17956;DHT22;27666;51.498;11.966;2022-12-08T10:33:35;6.30;99.90
17956;DHT22;27666;51.498;11.966;2022-12-08T10:36:22;6.60;99.90
17956;DHT22;27666;51.498;11.966;2022-12-08T10:39:40;6.60;99.90
17956;DHT22;27666;51.498;11.966;2022-12-08T10:42:34;6.50;99.90
17956;DHT22;27666;51.498;11.966;2022-12-08T10:45:24;6.50;99.90
17956;DHT22;27666;51.498;11.966;2022-12-08T10:48:17;6.60;99.90
17956;DHT22;27666;51.498;11.966;2022-12-08T10:51:04;6.60;99.90
17956;DHT22;27666;51.498;11.966;2022-12-08T10:53:50;6.70;99.90
17956;DHT22;27666;51.498;11.966;2022-12-08T10:56:37;6.70;99.90
17956;DHT22;27666;51.498;11.966;2022-12-08T10:59:25;6.70;99.90
17956;DHT22;27666;51.498;11.966;2022-12-08T11:02:18;6.70;99.90
17956;DHT22;27666;51.498;11.966;2022-12-08T11:05:05;6.70;99.90
17956;DHT22;27666;51.498;11.966;2022-12-08T11:07:53;6.80;99.90
17956;DHT22;27666;51.498;11.966;2022-12-08T11:10:42;6.80;99.90
17956;DHT22;27666;51.498;11.966;2022-12-08T11:13:29;6.70;99.90
17956;DHT22;27666;51.498;11.966;2022-12-08T11:16:18;6.80;99.90
17956;DHT22;27666;51.498;11.966;2022-12-08T11:19:05;6.80;99.90
17956;DHT22;27666;51.498;11.966;2022-12-08T11:21:51;6.90;99.90
17956;DHT22;27666;51.498;11.966;2022-12-08T11:24:37;6.90;99.90
17956;DHT22;27666;51.498;11.966;2022-12-08T11:27:24;6.80;99.90
17956;DHT22;27666;51.498;11.966;2022-12-08T11:30:16;6.90;99.90
17956;DHT22;27666;51.498;11.966;2022-12-08T11:33:13;6.90;99.90
17956;DHT22;27666;51.498;11.966;2022-12-08T11:36:04;6.80;99.90
17956;DHT22;27666;51.498;11.966;2022-12-08T11:38:55;6.80;99.90
17956;DHT22;27666;51.498;11.966;2022-12-08T11:41:43;6.80;99.90
17956;DHT22;27666;51.498;11.966;2022-12-08T11:44:36;6.80;99.90
17956;DHT22;27666;51.498;11.966;2022-12-08T11:47:26;6.80;99.90
17956;DHT22;27666;51.498;11.966;2022-12-08T11:50:20;6.80;99.90
17956;DHT22;27666;51.498;11.966;2022-12-08T11:53:16;6.70;99.90
17956;DHT22;27666;51.498;11.966;2022-12-08T11:56:08;6.70;99.90
17956;DHT22;27666;51.498;11.966;2022-12-08T11:58:57;6.80;99.90
17956;DHT22;27666;51.498;11.966;2022-12-08T12:01:44;6.70;99.90
17956;DHT22;27666;51.498;11.966;2022-12-08T12:04:34;6.60;99.90
17956;DHT22;27666;51.498;11.966;2022-12-08T12:07:36;6.60;99.90
17956;DHT22;27666;51.498;11.966;2022-12-08T12:10:35;6.50;99.90
17956;DHT22;27666;51.498;11.966;2022-12-08T12:13:44;6.50;99.90
17956;DHT22;27666;51.498;11.966;2022-12-08T12:16:58;6.50;99.90
17956;DHT22;27666;51.498;11.966;2022-12-08T12:19:46;6.50;99.90
17956;DHT22;27666;51.498;11.966;2022-12-08T12:22:36;6.50;99.90
17956;DHT22;27666;51.498;11.966;2022-12-08T12:25:24;6.50;99.90
17956;DHT22;27666;51.498;11.966;2022-12-08T12:28:12;6.50;99.90
17956;DHT22;27666;51.498;11.966;2022-12-08T12:31:02;6.50;99.90
17956;DHT22;27666;51.498;11.966;2022-12-08T12:33:54;6.60;99.90
17956;DHT22;27666;51.498;11.966;2022-12-08T12:36:51;6.50;99.90
17956;DHT22;27666;51.498;11.966;2022-12-08T12:39:48;6.50;99.90
17956;DHT22;27666;51.498;11.966;2022-12-08T12:42:41;6.40;99.90
17956;DHT22;27666;51.498;11.966;2022-12-08T12:45:30;6.50;99.90
17956;DHT22;27666;51.498;11.966;2022-12-08T12:48:23;6.40;99.90
17956;DHT22;27666;51.498;11.966;2022-12-08T12:51:34;6.40;99.90
17956;DHT22;27666;51.498;11.966;2022-12-08T12:54:22;6.40;99.90
17956;DHT22;27666;51.498;11.966;2022-12-08T12:57:22;6.40;99.90
17956;DHT22;27666;51.498;11.966;2022-12-08T13:00:17;6.50;99.90
17956;DHT22;27666;51.498;11.966;2022-12-08T13:03:11;6.40;99.90
17956;DHT22;27666;51.498;11.966;2022-12-08T13:05:59;6.40;99.90
17956;DHT22;27666;51.498;11.966;2022-12-08T13:08:50;6.40;99.90
17956;DHT22;27666;51.498;11.966;2022-12-08T13:11:49;6.50;99.90
17956;DHT22;27666;51.498;11.966;2022-12-08T13:14:44;6.40;99.90
17956;DHT22;27666;51.498;11.966;2022-12-08T13:17:34;6.40;99.90
17956;DHT22;27666;51.498;11.966;2022-12-08T13:20:24;6.40;99.90
17956;DHT22;27666;51.498;11.966;2022-12-08T13:23:24;6.30;99.90
17956;DHT22;27666;51.498;11.966;2022-12-08T13:26:17;6.30;99.90
17956;DHT22;27666;51.498;11.966;2022-12-08T13:29:13;6.30;99.90
17956;DHT22;27666;51.498;11.966;2022-12-08T13:32:02;6.30;99.90
17956;DHT22;27666;51.498;11.966;2022-12-08T13:34:52;6.30;99.90
17956;DHT22;27666;51.498;11.966;2022-12-08T13:37:45;6.20;99.90
17956;DHT22;27666;51.498;11.966;2022-12-08T13:40:41;6.20;99.90
17956;DHT22;27666;51.498;11.966;2022-12-08T13:43:34;6.30;99.90
17956;DHT22;27666;51.498;11.966;2022-12-08T13:46:42;6.20;99.90
17956;DHT22;27666;51.498;11.966;2022-12-08T13:49:54;6.20;99.90
17956;DHT22;27666;51.498;11.966;2022-12-08T13:53:08;6.30;99.90
17956;DHT22;27666;51.498;11.966;2022-12-08T13:56:17;6.20;99.90
17956;DHT22;27666;51.498;11.966;2022-12-08T13:59:26;6.30;99.90
17956;DHT22;27666;51.498;11.966;2022-12-08T14:02:17;6.20;99.90
17956;DHT22;27666;51.498;11.966;2022-12-08T14:05:07;6.10;99.90
17956;DHT22;27666;51.498;11.966;2022-12-08T14:08:18;6.10;99.90
17956;DHT22;27666;51.498;11.966;2022-12-08T14:11:28;6.10;99.90
17956;DHT22;27666;51.498;11.966;2022-12-08T14:14:25;6.00;99.90
17956;DHT22;27666;51.498;11.966;2022-12-08T14:17:33;6.00;99.90
17956;DHT22;27666;51.498;11.966;2022-12-08T14:20:23;6.00;99.90
17956;DHT22;27666;51.498;11.966;2022-12-08T14:23:14;6.10;99.90
17956;DHT22;27666;51.498;11.966;2022-12-08T14:26:02;6.00;99.90
17956;DHT22;27666;51.498;11.966;2022-12-08T14:28:50;6.00;99.90
17956;DHT22;27666;51.498;11.966;2022-12-08T14:31:36;6.00;99.90
17956;DHT22;27666;51.498;11.966;2022-12-08T14:34:23;6.00;99.90
17956;DHT22;27666;51.498;11.966;2022-12-08T14:37:12;6.00;99.90
17956;DHT22;27666;51.498;11.966;2022-12-08T14:40:02;5.90;99.90
17956;DHT22;27666;51.498;11.966;2022-12-08T14:42:51;6.00;99.90
17956;DHT22;27666;51.498;11.966;2022-12-08T14:45:46;5.90;99.90
17956;DHT22;27666;51.498;11.966;2022-12-08T14:48:40;6.00;99.90
17956;DHT22;27666;51.498;11.966;2022-12-08T14:51:30;5.90;99.90
17956;DHT22;27666;51.498;11.966;2022-12-08T14:54:19;6.00;99.90
17956;DHT22;27666;51.498;11.966;2022-12-08T14:57:06;5.90;99.90
17956;DHT22;27666;51.498;11.966;2022-12-08T14:59:55;5.90;99.90
17956;DHT22;27666;51.498;11.966;2022-12-08T15:02:44;5.80;99.90
17956;DHT22;27666;51.498;11.966;2022-12-08T15:05:31;5.80;99.90
17956;DHT22;27666;51.498;11.966;2022-12-08T15:08:18;5.90;99.90
17956;DHT22;27666;51.498;11.966;2022-12-08T15:11:29;5.80;99.90
17956;DHT22;27666;51.498;11.966;2022-12-08T15:14:27;5.60;99.90
17956;DHT22;27666;51.498;11.966;2022-12-08T15:17:27;5.10;99.90
17956;DHT22;27666;51.498;11.966;2022-12-08T15:20:27;4.80;99.90
17956;DHT22;27666;51.498;11.966;2022-12-08T15:23:23;4.30;99.90
17956;DHT22;27666;51.498;11.966;2022-12-08T15:26:19;4.10;99.90
17956;DHT22;27666;51.498;11.966;2022-12-08T15:29:11;4.00;99.90
17956;DHT22;27666;51.498;11.966;2022-12-08T15:31:59;3.80;99.90
17956;DHT22;27666;51.498;11.966;2022-12-08T15:34:46;3.60;99.90
17956;DHT22;27666;51.498;11.966;2022-12-08T15:37:33;3.40;99.90
17956;DHT22;27666;51.498;11.966;2022-12-08T15:40:21;3.40;99.90
17956;DHT22;27666;51.498;11.966;2022-12-08T15:43:11;3.20;99.90
17956;DHT22;27666;51.498;11.966;2022-12-08T15:45:57;3.30;99.90
17956;DHT22;27666;51.498;11.966;2022-12-08T15:48:44;3.50;99.90
17956;DHT22;27666;51.498;11.966;2022-12-08T15:51:31;3.70;99.90
17956;DHT22;27666;51.498;11.966;2022-12-08T15:54:21;3.70;99.90
17956;DHT22;27666;51.498;11.966;2022-12-08T15:57:17;3.80;99.90
17956;DHT22;27666;51.498;11.966;2022-12-08T16:00:28;3.80;99.90
17956;DHT22;27666;51.498;11.966;2022-12-08T16:03:36;3.90;99.90
17956;DHT22;27666;51.498;11.966;2022-12-08T16:06:44;3.90;99.90
17956;DHT22;27666;51.498;11.966;2022-12-08T16:09:51;3.90;99.90
17956;DHT22;27666;51.498;11.966;2022-12-08T16:12:38;4.00;99.90
17956;DHT22;27666;51.498;11.966;2022-12-08T16:16:05;3.90;99.90
17956;DHT22;27666;51.498;11.966;2022-12-08T16:18:52;4.00;99.90
17956;DHT22;27666;51.498;11.966;2022-12-08T16:21:38;4.00;99.90
17956;DHT22;27666;51.498;11.966;2022-12-08T16:24:45;4.00;99.90
17956;DHT22;27666;51.498;11.966;2022-12-08T16:27:32;4.00;99.90
17956;DHT22;27666;51.498;11.966;2022-12-08T16:30:40;4.00;99.90
17956;DHT22;27666;51.498;11.966;2022-12-08T16:33:28;3.90;99.90
17956;DHT22;27666;51.498;11.966;2022-12-08T16:36:15;3.90;99.90
17956;DHT22;27666;51.498;11.966;2022-12-08T16:39:01;4.00;99.90
17956;DHT22;27666;51.498;11.966;2022-12-08T16:41:47;3.90;99.90
17956;DHT22;27666;51.498;11.966;2022-12-08T16:44:51;4.00;99.90
17956;DHT22;27666;51.498;11.966;2022-12-08T16:47:39;4.10;99.90
17956;DHT22;27666;51.498;11.966;2022-12-08T16:50:29;4.10;99.90
17956;DHT22;27666;51.498;11.966;2022-12-08T16:53:15;4.20;99.90
17956;DHT22;27666;51.498;11.966;2022-12-08T16:56:02;4.10;99.90
17956;DHT22;27666;51.498;11.966;2022-12-08T16:58:48;4.20;99.90
17956;DHT22;27666;51.498;11.966;2022-12-08T17:01:35;4.20;99.90
17956;DHT22;27666;51.498;11.966;2022-12-08T17:04:22;4.20;99.90
17956;DHT22;27666;51.498;11.966;2022-12-08T17:07:18;4.20;99.90
17956;DHT22;27666;51.498;11.966;2022-12-08T17:10:06;4.20;99.90
17956;DHT22;27666;51.498;11.966;2022-12-08T17:12:54;4.20;99.90
17956;DHT22;27666;51.498;11.966;2022-12-08T17:15:40;4.20;99.90
17956;DHT22;27666;51.498;11.966;2022-12-08T17:18:27;4.30;99.90
17956;DHT22;27666;51.498;11.966;2022-12-08T17:21:16;4.30;99.90
17956;DHT22;27666;51.498;11.966;2022-12-08T17:24:04;4.20;99.90
17956;DHT22;27666;51.498;11.966;2022-12-08T17:26:50;4.20;99.90
17956;DHT22;27666;51.498;11.966;2022-12-08T17:29:36;4.20;99.90
17956;DHT22;27666;51.498;11.966;2022-12-08T17:32:23;4.20;99.90
17956;DHT22;27666;51.498;11.966;2022-12-08T17:35:10;4.20;99.90
17956;DHT22;27666;51.498;11.966;2022-12-08T17:37:57;4.30;99.90
17956;DHT22;27666;51.498;11.966;2022-12-08T17:40:45;4.30;99.90
17956;DHT22;27666;51.498;11.966;2022-12-08T17:43:31;4.30;99.90
17956;DHT22;27666;51.498;11.966;2022-12-08T17:46:19;4.30;99.90
17956;DHT22;27666;51.498;11.966;2022-12-08T17:49:09;4.30;99.90
17956;DHT22;27666;51.498;11.966;2022-12-08T17:51:58;4.20;99.90
17956;DHT22;27666;51.498;11.966;2022-12-08T17:54:44;4.30;99.90